sensor_id;sensor_type;location;lat;lon;timestamp;P1;durP1;ratioP1;P2;durP2;ratioP2
38248;SDS011;24045;51.138;17.126;2023-06-22T00:14:58;20.00;;;17.90;;
38248;SDS011;24045;51.138;17.126;2023-06-22T00:30:01;20.70;;;17.70;;
38248;SDS011;24045;51.138;17.126;2023-06-22T00:45:04;19.20;;;17.20;;
38248;SDS011;24045;51.138;17.126;2023-06-22T01:00:08;21.50;;;19.30;;
38248;SDS011;24045;51.138;17.126;2023-06-22T01:15:20;20.50;;;18.30;;
38248;SDS011;24045;51.138;17.126;2023-06-22T01:30:28;20.80;;;18.50;;
38248;SDS011;24045;51.138;17.126;2023-06-22T01:45:33;19.20;;;17.00;;
38248;SDS011;24045;51.138;17.126;2023-06-22T02:00:37;19.10;;;17.10;;
38248;SDS011;24045;51.138;17.126;2023-06-22T02:15:41;20.70;;;17.90;;
38248;SDS011;24045;51.138;17.126;2023-06-22T02:30:44;19.80;;;17.60;;
38248;SDS011;24045;51.138;17.126;2023-06-22T02:45:47;21.20;;;18.80;;
38248;SDS011;24045;51.138;17.126;2023-06-22T03:00:50;21.40;;;18.20;;
38248;SDS011;24045;51.138;17.126;2023-06-22T03:15:55;19.40;;;17.20;;
38248;SDS011;24045;51.138;17.126;2023-06-22T03:30:58;19.60;;;17.60;;
38248;SDS011;24045;51.138;17.126;2023-06-22T03:46:01;20.30;;;18.20;;
38248;SDS011;24045;51.138;17.126;2023-06-22T04:01:03;20.00;;;18.00;;
38248;SDS011;24045;51.138;17.126;2023-06-22T04:16:06;18.40;;;16.50;;
38248;SDS011;24045;51.138;17.126;2023-06-22T04:31:09;20.90;;;18.90;;
38248;SDS011;24045;51.138;17.126;2023-06-22T04:46:12;23.30;;;20.90;;
38248;SDS011;24045;51.138;17.126;2023-06-22T05:01:14;24.30;;;22.00;;
38248;SDS011;24045;51.138;17.126;2023-06-22T05:16:17;23.20;;;20.80;;
38248;SDS011;24045;51.138;17.126;2023-06-22T05:31:20;17.90;;;16.10;;
38248;SDS011;24045;51.138;17.126;2023-06-22T05:46:23;14.80;;;13.30;;
38248;SDS011;24045;51.138;17.126;2023-06-22T06:01:26;13.90;;;12.30;;
38248;SDS011;24045;51.138;17.126;2023-06-22T06:16:29;15.00;;;13.50;;
38248;SDS011;24045;51.138;17.126;2023-06-22T06:31:32;17.30;;;15.60;;
38248;SDS011;24045;51.138;17.126;2023-06-22T06:46:35;17.50;;;15.60;;
38248;SDS011;24045;51.138;17.126;2023-06-22T07:01:38;16.70;;;15.00;;
38248;SDS011;24045;51.138;17.126;2023-06-22T07:16:41;16.60;;;14.90;;
38248;SDS011;24045;51.138;17.126;2023-06-22T07:31:44;14.40;;;12.40;;
38248;SDS011;24045;51.138;17.126;2023-06-22T07:46:47;14.10;;;11.30;;
38248;SDS011;24045;51.138;17.126;2023-06-22T08:01:50;14.10;;;12.30;;
38248;SDS011;24045;51.138;17.126;2023-06-22T08:16:52;13.00;;;10.40;;
38248;SDS011;24045;51.138;17.126;2023-06-22T08:31:55;10.30;;;9.30;;
38248;SDS011;24045;51.138;17.126;2023-06-22T08:46:58;10.00;;;8.90;;
38248;SDS011;24045;51.138;17.126;2023-06-22T09:02:00;11.20;;;9.40;;
38248;SDS011;24045;51.138;17.126;2023-06-22T09:17:03;10.40;;;9.10;;
38248;SDS011;24045;51.138;17.126;2023-06-22T09:32:06;9.60;;;8.40;;
38248;SDS011;24045;51.138;17.126;2023-06-22T09:47:10;10.80;;;8.20;;
38248;SDS011;24045;51.138;17.126;2023-06-22T10:02:12;11.40;;;8.30;;
38248;SDS011;24045;51.138;17.126;2023-06-22T10:17:15;9.60;;;6.90;;
38248;SDS011;24045;51.138;17.126;2023-06-22T10:32:18;8.70;;;7.80;;
38248;SDS011;24045;51.138;17.126;2023-06-22T10:47:21;10.10;;;7.40;;
38248;SDS011;24045;51.138;17.126;2023-06-22T11:02:24;9.40;;;7.40;;
38248;SDS011;24045;51.138;17.126;2023-06-22T11:17:27;12.00;;;7.50;;
38248;SDS011;24045;51.138;17.126;2023-06-22T11:32:30;10.70;;;7.90;;
38248;SDS011;24045;51.138;17.126;2023-06-22T11:47:33;10.20;;;7.80;;
38248;SDS011;24045;51.138;17.126;2023-06-22T12:02:36;9.40;;;7.70;;
38248;SDS011;24045;51.138;17.126;2023-06-22T12:17:40;8.30;;;6.40;;
38248;SDS011;24045;51.138;17.126;2023-06-22T12:32:43;10.60;;;8.20;;
38248;SDS011;24045;51.138;17.126;2023-06-22T12:47:45;9.40;;;7.70;;
38248;SDS011;24045;51.138;17.126;2023-06-22T13:02:48;9.40;;;7.70;;
38248;SDS011;24045;51.138;17.126;2023-06-22T13:17:52;10.10;;;7.80;;
38248;SDS011;24045;51.138;17.126;2023-06-22T13:32:55;9.10;;;6.90;;
38248;SDS011;24045;51.138;17.126;2023-06-22T13:47:58;9.10;;;6.90;;
38248;SDS011;24045;51.138;17.126;2023-06-22T14:03:01;8.50;;;7.20;;
38248;SDS011;24045;51.138;17.126;2023-06-22T14:18:04;9.00;;;7.00;;
38248;SDS011;24045;51.138;17.126;2023-06-22T14:33:07;10.10;;;6.50;;
38248;SDS011;24045;51.138;17.126;2023-06-22T14:48:10;10.30;;;7.00;;
38248;SDS011;24045;51.138;17.126;2023-06-22T15:03:13;9.30;;;6.20;;
38248;SDS011;24045;51.138;17.126;2023-06-22T15:18:20;9.40;;;7.10;;
38248;SDS011;24045;51.138;17.126;2023-06-22T15:33:24;8.50;;;6.50;;
38248;SDS011;24045;51.138;17.126;2023-06-22T15:48:27;10.20;;;7.00;;
38248;SDS011;24045;51.138;17.126;2023-06-22T16:03:31;9.40;;;6.80;;
38248;SDS011;24045;51.138;17.126;2023-06-22T16:18:34;9.40;;;7.10;;
38248;SDS011;24045;51.138;17.126;2023-06-22T16:33:39;8.60;;;6.60;;
38248;SDS011;24045;51.138;17.126;2023-06-22T16:48:50;9.10;;;7.20;;
38248;SDS011;24045;51.138;17.126;2023-06-22T17:04:06;9.70;;;6.20;;
38248;SDS011;24045;51.138;17.126;2023-06-22T17:19:11;9.20;;;7.10;;
38248;SDS011;24045;51.138;17.126;2023-06-22T17:34:16;10.90;;;7.10;;
38248;SDS011;24045;51.138;17.126;2023-06-22T17:49:23;9.60;;;7.20;;
38248;SDS011;24045;51.138;17.126;2023-06-22T18:04:28;8.50;;;4.90;;
38248;SDS011;24045;51.138;17.126;2023-06-22T18:19:34;8.30;;;4.80;;
38248;SDS011;24045;51.138;17.126;2023-06-22T18:34:39;8.00;;;4.90;;
38248;SDS011;24045;51.138;17.126;2023-06-22T19:04:45;8.90;;;4.50;;
38248;SDS011;24045;51.138;17.126;2023-06-22T19:19:48;7.40;;;4.70;;
38248;SDS011;24045;51.138;17.126;2023-06-22T19:34:54;8.60;;;5.40;;
38248;SDS011;24045;51.138;17.126;2023-06-22T19:49:59;8.40;;;5.20;;
38248;SDS011;24045;51.138;17.126;2023-06-22T20:05:04;9.20;;;5.20;;
38248;SDS011;24045;51.138;17.126;2023-06-22T20:20:17;9.90;;;6.70;;
38248;SDS011;24045;51.138;17.126;2023-06-22T20:35:22;12.30;;;6.40;;
38248;SDS011;24045;51.138;17.126;2023-06-22T20:50:27;11.80;;;7.00;;
38248;SDS011;24045;51.138;17.126;2023-06-22T21:05:32;9.40;;;5.50;;
38248;SDS011;24045;51.138;17.126;2023-06-22T21:20:35;8.90;;;5.40;;
38248;SDS011;24045;51.138;17.126;2023-06-22T21:35:38;8.30;;;5.50;;
38248;SDS011;24045;51.138;17.126;2023-06-22T21:50:41;9.20;;;5.80;;
38248;SDS011;24045;51.138;17.126;2023-06-22T22:05:44;8.60;;;5.30;;
38248;SDS011;24045;51.138;17.126;2023-06-22T22:20:48;10.00;;;6.40;;
38248;SDS011;24045;51.138;17.126;2023-06-22T22:35:51;8.80;;;6.20;;
38248;SDS011;24045;51.138;17.126;2023-06-22T22:50:54;9.30;;;5.20;;
38248;SDS011;24045;51.138;17.126;2023-06-22T23:05:57;8.90;;;5.50;;
38248;SDS011;24045;51.138;17.126;2023-06-22T23:21:00;8.80;;;5.40;;
38248;SDS011;24045;51.138;17.126;2023-06-22T23:36:04;7.90;;;5.10;;
38248;SDS011;24045;51.138;17.126;2023-06-22T23:51:07;9.10;;;5.30;;
